createdAt,value
2023-03-05T00:00:01.701Z,3.98
2023-03-05T00:01:01.660Z,3.96
2023-03-05T00:02:01.648Z,3.96
2023-03-05T00:03:01.645Z,3.96
2023-03-05T00:04:01.623Z,3.95
2023-03-05T00:05:01.623Z,3.96
2023-03-05T00:06:01.630Z,3.95
2023-03-05T00:07:01.603Z,3.96
2023-03-05T00:08:01.575Z,3.95
2023-03-05T00:09:01.560Z,3.96
2023-03-05T00:10:01.574Z,3.96
2023-03-05T00:11:01.547Z,3.96
2023-03-05T00:12:01.574Z,3.96
2023-03-05T00:13:01.542Z,3.96
2023-03-05T00:14:01.526Z,3.98
2023-03-05T00:15:01.516Z,3.98
2023-03-05T00:16:01.485Z,3.96
2023-03-05T00:17:01.472Z,3.94
2023-03-05T00:18:01.498Z,3.91
2023-03-05T00:19:01.461Z,3.88
2023-03-05T00:20:02.580Z,3.91
2023-03-05T00:21:01.433Z,3.94
2023-03-05T00:22:01.439Z,3.88
2023-03-05T00:23:01.419Z,3.88
2023-03-05T00:24:01.437Z,3.88
2023-03-05T00:25:01.413Z,3.88
2023-03-05T00:26:01.412Z,3.86
2023-03-05T00:27:01.400Z,3.87
2023-03-05T00:28:01.378Z,3.87
2023-03-05T00:29:01.375Z,3.86
2023-03-05T00:30:01.397Z,3.88
2023-03-05T00:31:01.395Z,3.86
2023-03-05T00:32:01.407Z,3.86
2023-03-05T00:33:01.371Z,3.86
2023-03-05T00:34:01.311Z,3.84
2023-03-05T00:35:01.297Z,3.86
2023-03-05T00:36:01.318Z,3.87
2023-03-05T00:37:01.281Z,3.87
2023-03-05T00:38:01.271Z,3.86
2023-03-05T00:39:01.307Z,3.83
2023-03-05T00:40:01.310Z,3.81
2023-03-05T00:41:01.266Z,3.84
2023-03-05T00:42:01.232Z,3.86
2023-03-05T00:43:01.244Z,3.86
2023-03-05T00:44:01.206Z,3.84
2023-03-05T00:45:01.238Z,3.87
2023-03-05T00:46:01.198Z,3.86
2023-03-05T00:47:01.185Z,3.91
2023-03-05T00:48:01.319Z,3.88
2023-03-05T00:49:01.183Z,3.91
2023-03-05T00:50:01.168Z,3.86
2023-03-05T00:51:01.201Z,3.84
2023-03-05T00:52:01.131Z,3.81
2023-03-05T00:53:01.130Z,3.78
2023-03-05T00:54:01.107Z,3.76
2023-03-05T00:55:01.113Z,3.74
2023-03-05T00:56:01.088Z,3.65
2023-03-05T00:57:01.108Z,3.62
2023-03-05T00:58:01.067Z,3.59
2023-03-05T00:59:01.063Z,3.58
2023-03-05T01:00:01.046Z,3.55
2023-03-05T01:01:01.046Z,3.53
2023-03-05T01:02:01.108Z,3.48
2023-03-05T01:03:01.007Z,3.48
2023-03-05T01:04:01.002Z,3.45
2023-03-05T01:05:01.048Z,3.47
2023-03-05T01:06:00.993Z,3.45
2023-03-05T01:07:00.982Z,3.45
2023-03-05T01:08:00.998Z,3.45
2023-03-05T01:09:00.952Z,3.45
2023-03-05T01:10:00.945Z,3.45
2023-03-05T01:11:00.936Z,3.48
2023-03-05T01:12:00.918Z,3.45
2023-03-05T01:13:00.903Z,3.45
2023-03-05T01:14:00.897Z,3.47
2023-03-05T01:15:00.888Z,3.45
2023-03-05T01:16:00.876Z,3.47
2023-03-05T01:17:00.851Z,3.47
2023-03-05T01:18:00.861Z,3.45
2023-03-05T01:19:00.849Z,3.47
2023-03-05T01:20:00.843Z,3.45
2023-03-05T01:21:00.829Z,3.45
2023-03-05T01:22:00.819Z,3.48
2023-03-05T01:23:00.816Z,3.51
2023-03-05T01:24:00.800Z,3.48
2023-03-05T01:25:00.809Z,3.50
2023-03-05T01:26:00.789Z,3.48
2023-03-05T01:27:00.769Z,3.47
2023-03-05T01:28:00.755Z,3.47
2023-03-05T01:29:00.752Z,3.45
2023-03-05T01:30:00.727Z,3.45
2023-03-05T01:31:00.725Z,3.47
2023-03-05T01:32:00.729Z,3.47
2023-03-05T01:33:00.701Z,3.47
2023-03-05T01:34:00.687Z,3.45
2023-03-05T01:35:00.688Z,3.45
2023-03-05T01:36:00.674Z,3.48
2023-03-05T01:37:00.687Z,3.50
2023-03-05T01:38:00.660Z,3.51
2023-03-05T01:39:00.639Z,3.51
2023-03-05T01:40:00.671Z,3.56
2023-03-05T01:41:00.618Z,3.58
2023-03-05T01:42:00.668Z,3.59
2023-03-05T01:43:00.639Z,3.59
2023-03-05T01:44:00.580Z,3.62
2023-03-05T01:45:00.569Z,3.62
2023-03-05T01:46:00.626Z,3.63
2023-03-05T01:47:00.555Z,3.65
2023-03-05T01:48:00.596Z,3.66
2023-03-05T01:49:00.534Z,3.63
2023-03-05T01:50:00.542Z,3.65
2023-03-05T01:51:00.522Z,3.65
2023-03-05T01:52:00.518Z,3.66
2023-03-05T01:53:00.478Z,3.66
2023-03-05T01:54:00.506Z,3.65
2023-03-05T01:55:00.462Z,3.65
2023-03-05T01:56:00.456Z,3.65
2023-03-05T01:57:00.448Z,3.62
2023-03-05T01:58:00.442Z,3.63
2023-03-05T01:59:00.475Z,3.60
2023-03-05T02:00:00.439Z,3.62
2023-03-05T02:01:00.466Z,3.59
2023-03-05T02:02:00.454Z,3.59
2023-03-05T02:03:00.403Z,3.50
2023-03-05T02:04:00.484Z,3.44
2023-03-05T02:05:00.405Z,3.41
2023-03-05T02:06:00.384Z,3.36
2023-03-05T02:07:00.359Z,3.37
2023-03-05T02:08:00.327Z,3.37
2023-03-05T02:09:00.319Z,3.37
2023-03-05T02:10:00.316Z,3.41
2023-03-05T02:11:00.329Z,3.41
2023-03-05T02:12:00.305Z,3.41
2023-03-05T02:13:00.293Z,3.40
2023-03-05T02:14:00.287Z,3.44
2023-03-05T02:15:00.279Z,3.42
2023-03-05T02:16:00.307Z,3.44
2023-03-05T02:17:00.266Z,3.45
2023-03-05T02:18:00.281Z,3.44
2023-03-05T02:19:00.254Z,3.45
2023-03-05T02:20:00.213Z,3.48
2023-03-05T02:21:00.201Z,3.47
2023-03-05T02:22:00.247Z,3.45
2023-03-05T02:23:00.190Z,3.42
2023-03-05T02:24:00.190Z,3.44
2023-03-05T02:25:00.177Z,3.44
2023-03-05T02:26:00.171Z,3.47
2023-03-05T02:27:00.172Z,3.47
2023-03-05T02:28:00.191Z,3.50
2023-03-05T02:29:00.160Z,3.50
2023-03-05T02:30:00.210Z,3.53
2023-03-05T02:31:00.124Z,3.50
2023-03-05T02:32:00.246Z,3.53
2023-03-05T02:33:00.103Z,3.51
2023-03-05T02:34:00.127Z,3.50
2023-03-05T02:35:00.110Z,3.51
2023-03-05T02:36:00.177Z,3.50
2023-03-05T02:37:00.044Z,3.51
2023-03-05T02:38:00.048Z,3.53
2023-03-05T02:39:00.030Z,3.50
2023-03-05T02:40:00.076Z,3.45
2023-03-05T02:41:00.018Z,3.44
2023-03-05T02:42:00.040Z,3.42
2023-03-05T02:42:59.994Z,3.41
2023-03-05T02:43:59.998Z,3.40
2023-03-05T02:44:59.974Z,3.41
2023-03-05T02:46:00.133Z,3.34
2023-03-05T02:48:27.027Z,3.31
2023-03-05T02:48:31.913Z,3.29
2023-03-05T02:49:31.908Z,3.28
2023-03-05T02:50:31.916Z,3.26
2023-03-05T02:51:31.988Z,3.25
2023-03-05T02:52:31.918Z,3.26
2023-03-05T02:53:31.913Z,3.28
2023-03-05T02:54:31.859Z,3.25
2023-03-05T02:55:31.862Z,3.23
2023-03-05T02:56:31.838Z,3.25
2023-03-05T02:57:31.841Z,3.25
2023-03-05T02:58:31.889Z,3.23
2023-03-05T02:59:31.846Z,3.22
2023-03-05T03:00:31.791Z,3.22
2023-03-05T03:01:31.855Z,3.21
2023-03-05T03:02:31.811Z,3.19
2023-03-05T03:03:31.891Z,3.19
2023-03-05T03:04:31.758Z,3.18
2023-03-05T03:05:31.768Z,3.18
2023-03-05T03:06:31.750Z,3.16
2023-03-05T03:07:31.749Z,3.14
2023-03-05T03:08:31.750Z,3.14
2023-03-05T03:09:31.728Z,3.14
2023-03-05T03:10:31.701Z,3.13
2023-03-05T03:11:31.707Z,3.16
2023-03-05T03:12:31.673Z,3.10
2023-03-05T03:13:31.661Z,3.08
2023-03-05T03:14:31.682Z,3.07
2023-03-05T03:15:31.658Z,3.08
2023-03-05T03:16:31.657Z,3.07
2023-03-05T03:17:31.620Z,3.08
2023-03-05T03:18:31.621Z,3.07
2023-03-05T03:19:31.625Z,3.08
2023-03-05T03:20:31.641Z,3.07
2023-03-05T03:21:31.605Z,3.05
2023-03-05T03:22:31.597Z,3.05
2023-03-05T03:23:31.592Z,3.05
2023-03-05T03:24:31.570Z,3.07
2023-03-05T03:25:31.567Z,3.07
2023-03-05T03:26:32.043Z,3.03
2023-03-05T03:27:31.537Z,3.04
2023-03-05T03:28:31.521Z,3.04
2023-03-05T03:29:31.514Z,3.04
2023-03-05T03:30:31.511Z,2.98
2023-03-05T03:31:31.501Z,2.97
2023-03-05T03:32:31.570Z,2.97
2023-03-05T03:33:31.468Z,2.97
2023-03-05T03:34:31.462Z,2.93
2023-03-05T03:35:31.490Z,2.95
2023-03-05T03:36:31.452Z,2.98
2023-03-05T03:37:31.441Z,2.97
2023-03-05T03:38:31.456Z,2.95
2023-03-05T03:39:31.432Z,2.93
2023-03-05T03:40:31.394Z,2.95
2023-03-05T03:41:31.397Z,2.97
2023-03-05T03:42:31.371Z,2.97
2023-03-05T03:43:31.379Z,2.93
2023-03-05T03:44:31.390Z,2.93
2023-03-05T03:45:31.362Z,2.95
2023-03-05T03:46:31.462Z,2.95
2023-03-05T03:47:31.347Z,2.95
2023-03-05T03:48:31.328Z,2.93
2023-03-05T03:49:31.314Z,2.97
2023-03-05T03:50:31.368Z,2.95
2023-03-05T03:51:31.315Z,2.95
2023-03-05T03:52:31.276Z,2.95
2023-03-05T03:53:31.293Z,2.95
2023-03-05T03:54:31.266Z,2.97
2023-03-05T03:55:31.264Z,2.98
2023-03-05T03:56:31.281Z,2.97
2023-03-05T03:57:31.248Z,2.98
2023-03-05T03:58:31.229Z,3.01
2023-03-05T03:59:31.216Z,3.00
2023-03-05T04:00:31.224Z,3.00
2023-03-05T04:01:31.204Z,3.00
2023-03-05T04:02:31.255Z,3.01
2023-03-05T04:03:31.183Z,3.03
2023-03-05T04:04:31.189Z,3.04
2023-03-05T04:05:31.150Z,3.04
2023-03-05T04:06:31.140Z,3.03
2023-03-05T04:07:31.140Z,3.01
2023-03-05T04:08:31.158Z,3.03
2023-03-05T04:09:31.135Z,3.03
2023-03-05T04:10:31.105Z,3.05
2023-03-05T04:11:31.099Z,3.07
2023-03-05T04:12:31.074Z,3.05
2023-03-05T04:13:31.079Z,3.05
2023-03-05T04:14:31.109Z,3.07
2023-03-05T04:15:31.063Z,3.10
2023-03-05T04:16:31.044Z,3.11
2023-03-05T04:17:31.027Z,3.13
2023-03-05T04:18:32.530Z,3.11
2023-03-05T04:19:31.011Z,3.14
2023-03-05T04:20:31.045Z,3.14
2023-03-05T04:21:31.008Z,3.18
2023-03-05T04:22:30.983Z,3.19
2023-03-05T04:23:30.977Z,3.16
2023-03-05T04:24:30.964Z,3.11
2023-03-05T04:25:30.960Z,3.08
2023-03-05T04:26:30.984Z,3.10
2023-03-05T04:27:30.934Z,3.11
2023-03-05T04:28:30.926Z,3.11
2023-03-05T04:29:30.905Z,3.05
2023-03-05T04:30:30.893Z,3.07
2023-03-05T04:31:30.923Z,3.08
2023-03-05T04:32:31.358Z,3.04
2023-03-05T04:33:30.879Z,3.03
2023-03-05T04:34:30.855Z,3.00
2023-03-05T04:35:30.872Z,2.98
2023-03-05T04:36:30.840Z,2.98
2023-03-05T04:37:30.839Z,2.97
2023-03-05T04:38:30.843Z,2.97
2023-03-05T04:39:30.798Z,3.00
2023-03-05T04:40:30.792Z,3.01
2023-03-05T04:41:30.786Z,3.01
2023-03-05T04:42:30.765Z,3.01
2023-03-05T04:43:30.774Z,3.07
2023-03-05T04:44:30.769Z,3.08
2023-03-05T04:45:30.736Z,3.08
2023-03-05T04:46:30.805Z,3.07
2023-03-05T04:47:30.745Z,3.05
2023-03-05T04:48:30.712Z,3.04
2023-03-05T04:49:30.711Z,3.00
2023-03-05T04:50:30.723Z,2.97
2023-03-05T04:51:30.703Z,2.92
2023-03-05T04:52:30.670Z,2.93
2023-03-05T04:53:30.679Z,2.92
2023-03-05T04:54:30.660Z,2.89
2023-03-05T04:55:30.662Z,2.92
2023-03-05T04:56:30.660Z,2.92
2023-03-05T04:57:30.621Z,2.89
2023-03-05T04:58:30.605Z,2.89
2023-03-05T04:59:30.622Z,2.89
2023-03-05T05:00:30.593Z,2.86
2023-03-05T05:01:30.707Z,2.86
2023-03-05T05:02:30.655Z,2.80
2023-03-05T05:03:30.556Z,2.79
2023-03-05T05:04:30.542Z,2.82
2023-03-05T05:05:30.534Z,2.82
2023-03-05T05:06:30.538Z,2.82
2023-03-05T05:07:30.522Z,2.83
2023-03-05T05:08:30.522Z,2.80
2023-03-05T05:09:30.504Z,2.80
2023-03-05T05:10:30.490Z,2.77
2023-03-05T05:11:30.488Z,2.80
2023-03-05T05:12:30.479Z,2.77
2023-03-05T05:13:30.464Z,2.77
2023-03-05T05:14:30.490Z,2.77
2023-03-05T05:15:30.448Z,2.79
2023-03-05T05:16:30.472Z,2.80
2023-03-05T05:17:30.426Z,2.77
2023-03-05T05:18:30.425Z,2.74
2023-03-05T05:19:30.484Z,2.72
2023-03-05T05:20:30.427Z,2.72
2023-03-05T05:21:30.370Z,2.71
2023-03-05T05:22:30.366Z,2.71
2023-03-05T05:23:30.348Z,2.71
2023-03-05T05:24:30.336Z,2.74
2023-03-05T05:25:30.345Z,2.74
2023-03-05T05:26:30.351Z,2.74
2023-03-05T05:27:30.326Z,2.74
2023-03-05T05:28:30.305Z,2.69
2023-03-05T05:29:30.317Z,2.69
2023-03-05T05:30:30.301Z,2.69
2023-03-05T05:31:30.323Z,2.68
2023-03-05T05:32:30.343Z,2.67
2023-03-05T05:33:30.265Z,2.68
2023-03-05T05:34:30.255Z,2.68
2023-03-05T05:35:30.272Z,2.67
2023-03-05T05:36:30.226Z,2.67
2023-03-05T05:37:30.213Z,2.69
2023-03-05T05:38:30.608Z,2.62
2023-03-05T05:39:30.190Z,2.64
2023-03-05T05:40:30.199Z,2.61
2023-03-05T05:41:30.175Z,2.61
2023-03-05T05:42:30.176Z,2.60
2023-03-05T05:43:30.170Z,2.57
2023-03-05T05:44:30.200Z,2.61
2023-03-05T05:45:30.324Z,2.60
2023-03-05T05:46:30.185Z,2.60
2023-03-05T05:47:30.129Z,2.62
2023-03-05T05:48:30.126Z,2.62
2023-03-05T05:49:30.107Z,2.61
2023-03-05T05:50:30.126Z,2.57
2023-03-05T05:51:30.093Z,2.60
2023-03-05T05:52:30.095Z,2.61
2023-03-05T05:53:30.065Z,2.61
2023-03-05T05:54:30.061Z,2.62
2023-03-05T05:55:30.057Z,2.62
2023-03-05T05:56:30.043Z,2.60
2023-03-05T05:57:30.073Z,2.60
2023-03-05T05:58:30.014Z,2.61
2023-03-05T05:59:30.008Z,2.61
2023-03-05T06:00:30.009Z,2.60
2023-03-05T06:01:30.000Z,2.61
2023-03-05T06:02:29.990Z,2.62
2023-03-05T06:03:29.992Z,2.62
2023-03-05T06:04:29.950Z,2.61
2023-03-05T06:05:29.934Z,2.61
2023-03-05T06:06:29.935Z,2.61
2023-03-05T06:07:29.920Z,2.60
2023-03-05T06:08:29.965Z,2.60
2023-03-05T06:09:29.897Z,2.61
2023-03-05T06:10:29.903Z,2.61
2023-03-05T06:11:29.891Z,2.64
2023-03-05T06:12:29.882Z,2.67
2023-03-05T06:13:29.873Z,2.67
2023-03-05T06:14:29.893Z,2.68
2023-03-05T06:15:29.839Z,2.71
2023-03-05T06:16:29.871Z,2.69
2023-03-05T06:17:31.028Z,2.71
2023-03-05T06:18:29.810Z,2.68
2023-03-05T06:19:29.795Z,2.67
2023-03-05T06:20:29.830Z,2.65
2023-03-05T06:21:29.772Z,2.61
2023-03-05T06:22:29.786Z,2.64
2023-03-05T06:23:29.767Z,2.64
2023-03-05T06:24:29.774Z,2.67
2023-03-05T06:25:29.778Z,2.68
2023-03-05T06:26:29.755Z,2.69
2023-03-05T06:27:29.735Z,2.67
2023-03-05T06:28:29.731Z,2.68
2023-03-05T06:29:29.705Z,2.68
2023-03-05T06:30:29.772Z,2.68
2023-03-05T06:31:29.710Z,2.69
2023-03-05T06:32:29.725Z,2.69
2023-03-05T06:33:29.640Z,2.69
2023-03-05T06:34:29.650Z,2.71
2023-03-05T06:35:29.683Z,2.71
2023-03-05T06:36:29.641Z,2.75
2023-03-05T06:37:29.653Z,2.77
2023-03-05T06:38:29.619Z,2.80
2023-03-05T06:39:29.629Z,2.85
2023-03-05T06:40:29.591Z,2.85
2023-03-05T06:41:29.583Z,2.86
2023-03-05T06:42:29.569Z,2.89
2023-03-05T06:43:29.789Z,2.89
2023-03-05T06:44:29.551Z,2.90
2023-03-05T06:45:29.527Z,2.90
2023-03-05T06:46:29.531Z,2.89
2023-03-05T06:47:29.528Z,2.89
2023-03-05T06:48:29.521Z,2.87
2023-03-05T06:49:29.530Z,2.86
2023-03-05T06:50:29.495Z,2.86
2023-03-05T06:51:29.477Z,2.85
2023-03-05T06:52:29.478Z,2.83
2023-03-05T06:53:29.462Z,2.82
2023-03-05T06:54:29.489Z,2.82
2023-03-05T06:55:29.427Z,2.80
2023-03-05T06:56:29.429Z,2.79
2023-03-05T06:57:29.419Z,2.80
2023-03-05T06:58:29.397Z,2.77
2023-03-05T06:59:29.392Z,2.82
2023-03-05T07:00:29.408Z,2.83
2023-03-05T07:01:29.500Z,2.83
2023-03-05T07:02:29.435Z,2.82
2023-03-05T07:03:29.358Z,2.79
2023-03-05T07:04:29.361Z,2.82
2023-03-05T07:05:29.430Z,2.82
2023-03-05T07:06:29.399Z,2.80
2023-03-05T07:07:29.316Z,2.80
2023-03-05T07:08:29.307Z,2.85
2023-03-05T07:09:29.282Z,2.82
2023-03-05T07:10:29.279Z,2.82
2023-03-05T07:11:29.283Z,2.85
2023-03-05T07:12:29.306Z,2.83
2023-03-05T07:13:29.253Z,2.83
2023-03-05T07:14:29.256Z,2.83
2023-03-05T07:15:29.375Z,2.82
2023-03-05T07:16:29.232Z,2.85
2023-03-05T07:17:29.223Z,2.86
2023-03-05T07:18:29.262Z,2.86
2023-03-05T07:19:29.195Z,2.85
2023-03-05T07:20:29.184Z,2.86
2023-03-05T07:21:29.163Z,2.85
2023-03-05T07:22:29.166Z,2.86
2023-03-05T07:23:29.154Z,2.86
2023-03-05T07:24:29.185Z,2.85
2023-03-05T07:25:29.124Z,2.86
2023-03-05T07:26:29.132Z,2.90
2023-03-05T07:27:29.118Z,2.89
2023-03-05T07:28:29.109Z,2.89
2023-03-05T07:29:29.105Z,2.89
2023-03-05T07:30:29.198Z,2.90
2023-03-05T07:31:29.072Z,2.90
2023-03-05T07:32:29.143Z,2.92
2023-03-05T07:33:29.070Z,2.93
2023-03-05T07:34:29.049Z,2.97
2023-03-05T07:35:29.028Z,2.98
2023-03-05T07:36:29.060Z,2.98
2023-03-05T07:37:29.002Z,2.95
2023-03-05T07:38:29.011Z,2.97
2023-03-05T07:39:29.006Z,2.98
2023-03-05T07:40:28.999Z,3.01
2023-03-05T07:41:28.980Z,3.03
2023-03-05T07:42:29.068Z,3.00
2023-03-05T07:43:28.956Z,3.00
2023-03-05T07:44:28.951Z,3.00
2023-03-05T07:45:28.929Z,2.98
2023-03-05T07:46:29.021Z,3.00
2023-03-05T07:47:28.913Z,3.01
2023-03-05T07:48:28.941Z,3.04
2023-03-05T07:49:28.884Z,3.03
2023-03-05T07:50:28.891Z,3.04
2023-03-05T07:51:28.883Z,3.03
2023-03-05T07:52:28.879Z,3.01
2023-03-05T07:53:28.874Z,3.00
2023-03-05T07:54:28.885Z,2.98
2023-03-05T07:55:28.842Z,2.98
2023-03-05T07:56:28.831Z,3.01
2023-03-05T07:57:28.868Z,3.05
2023-03-05T07:58:28.828Z,3.05
2023-03-05T07:59:28.817Z,3.05
2023-03-05T08:00:28.806Z,3.04
2023-03-05T08:01:28.779Z,3.04
2023-03-05T08:02:28.825Z,3.07
2023-03-05T08:03:28.775Z,3.04
2023-03-05T08:04:28.785Z,3.07
2023-03-05T08:05:28.727Z,3.05
2023-03-05T08:06:28.729Z,3.07
2023-03-05T08:07:28.726Z,3.08
2023-03-05T08:08:28.716Z,3.05
2023-03-05T08:09:28.734Z,3.08
2023-03-05T08:10:28.719Z,3.11
2023-03-05T08:11:28.803Z,3.10
2023-03-05T08:12:28.659Z,3.10
2023-03-05T08:13:28.652Z,3.11
2023-03-05T08:14:28.672Z,3.05
2023-03-05T08:15:28.642Z,3.05
2023-03-05T08:16:28.637Z,3.04
2023-03-05T08:17:28.620Z,3.05
2023-03-05T08:18:28.620Z,3.10
2023-03-05T08:19:28.597Z,3.11
2023-03-05T08:20:28.627Z,3.16
2023-03-05T08:21:28.582Z,3.14
2023-03-05T08:22:28.582Z,3.16
2023-03-05T08:23:28.544Z,3.19
2023-03-05T08:24:28.535Z,3.21
2023-03-05T08:25:28.539Z,3.19
2023-03-05T08:26:28.559Z,3.14
2023-03-05T08:27:28.512Z,3.14
2023-03-05T08:28:28.508Z,3.10
2023-03-05T08:29:28.480Z,3.10
2023-03-05T08:30:28.486Z,3.13
2023-03-05T08:31:28.544Z,3.18
2023-03-05T08:32:28.674Z,3.14
2023-03-05T08:33:31.184Z,3.18
2023-03-05T08:34:28.452Z,3.18
2023-03-05T08:35:28.473Z,3.21
2023-03-05T08:36:28.436Z,3.21
2023-03-05T08:37:28.416Z,3.25
2023-03-05T08:38:28.394Z,3.25
2023-03-05T08:39:28.365Z,3.23
2023-03-05T08:40:28.407Z,3.25
2023-03-05T08:41:28.344Z,3.25
2023-03-05T08:42:28.339Z,3.22
2023-03-05T08:43:28.373Z,3.21
2023-03-05T08:44:28.330Z,3.23
2023-03-05T08:45:28.323Z,3.22
2023-03-05T08:46:28.334Z,3.22
2023-03-05T08:47:28.288Z,3.22
2023-03-05T08:48:28.303Z,3.26
2023-03-05T08:49:28.486Z,3.26
2023-03-05T08:50:28.286Z,3.23
2023-03-05T08:51:28.241Z,3.25
2023-03-05T08:52:28.246Z,3.26
2023-03-05T08:53:28.237Z,3.29
2023-03-05T08:54:28.227Z,3.31
2023-03-05T08:55:28.246Z,3.31
2023-03-05T08:56:28.195Z,3.31
2023-03-05T08:57:28.192Z,3.26
2023-03-05T08:58:28.173Z,3.28
2023-03-05T08:59:28.171Z,3.31
2023-03-05T09:00:28.170Z,3.37
2023-03-05T09:01:28.324Z,3.41
2023-03-05T09:02:28.216Z,3.41
2023-03-05T09:03:28.128Z,3.47
2023-03-05T09:04:28.126Z,3.51
2023-03-05T09:05:28.113Z,3.56
2023-03-05T09:06:28.125Z,3.56
2023-03-05T09:07:28.122Z,3.58
2023-03-05T09:08:28.087Z,3.60
2023-03-05T09:09:28.079Z,3.62
2023-03-05T09:10:28.063Z,3.60
2023-03-05T09:11:28.062Z,3.63
2023-03-05T09:12:28.056Z,3.65
2023-03-05T09:13:28.089Z,3.69
2023-03-05T09:14:28.050Z,3.68
2023-03-05T09:15:28.021Z,3.66
2023-03-05T09:16:28.109Z,3.60
2023-03-05T09:17:28.001Z,3.59
2023-03-05T09:18:27.985Z,3.58
2023-03-05T09:19:28.001Z,3.53
2023-03-05T09:20:27.978Z,3.45
2023-03-05T09:21:27.970Z,3.44
2023-03-05T09:22:27.964Z,3.47
2023-03-05T09:23:27.927Z,3.48
2023-03-05T09:24:27.946Z,3.50
2023-03-05T09:25:27.936Z,3.55
2023-03-05T09:26:27.941Z,3.51
2023-03-05T09:27:27.906Z,3.53
2023-03-05T09:28:27.891Z,3.53
2023-03-05T09:29:27.888Z,3.58
2023-03-05T09:30:27.867Z,3.58
2023-03-05T09:31:27.912Z,3.60
2023-03-05T09:32:27.892Z,3.62
2023-03-05T09:33:27.840Z,3.62
2023-03-05T09:34:27.839Z,3.59
2023-03-05T09:35:27.826Z,3.59
2023-03-05T09:36:27.809Z,3.60
2023-03-05T09:37:27.804Z,3.59
2023-03-05T09:38:27.781Z,3.58
2023-03-05T09:39:27.762Z,3.58
2023-03-05T09:40:27.772Z,3.53
2023-03-05T09:41:27.739Z,3.55
2023-03-05T09:42:27.742Z,3.56
2023-03-05T09:43:27.754Z,3.53
2023-03-05T09:44:27.721Z,3.55
2023-03-05T09:45:27.758Z,3.51
2023-03-05T09:46:27.713Z,3.55
2023-03-05T09:47:27.691Z,3.55
2023-03-05T09:48:27.713Z,3.60
2023-03-05T09:49:27.676Z,3.63
2023-03-05T09:50:27.656Z,3.66
2023-03-05T09:51:27.666Z,3.70
2023-03-05T09:52:27.626Z,3.73
2023-03-05T09:53:27.625Z,3.78
2023-03-05T09:54:27.644Z,3.77
2023-03-05T09:55:27.595Z,3.76
2023-03-05T09:56:27.588Z,3.74
2023-03-05T09:57:27.593Z,3.74
2023-03-05T09:58:27.582Z,3.77
2023-03-05T09:59:27.603Z,3.76
2023-03-05T10:00:27.579Z,3.77
2023-03-05T10:01:27.558Z,3.73
2023-03-05T10:02:27.537Z,3.76
2023-03-05T10:03:27.579Z,3.77
2023-03-05T10:04:27.663Z,3.83
2023-03-05T10:05:27.509Z,3.86
2023-03-05T10:06:27.540Z,3.88
2023-03-05T10:07:27.481Z,3.92
2023-03-05T10:08:27.478Z,3.88
2023-03-05T10:09:27.460Z,3.87
2023-03-05T10:10:27.473Z,3.91
2023-03-05T10:11:27.446Z,3.92
2023-03-05T10:12:27.475Z,3.92
2023-03-05T10:13:27.430Z,3.88
2023-03-05T10:14:27.425Z,3.88
2023-03-05T10:15:27.425Z,3.91
2023-03-05T10:16:27.420Z,3.88
2023-03-05T10:17:27.392Z,3.91
2023-03-05T10:18:27.386Z,3.92
2023-03-05T10:19:27.419Z,3.87
2023-03-05T10:20:27.354Z,3.87
2023-03-05T10:21:27.353Z,3.88
2023-03-05T10:22:27.336Z,3.87
2023-03-05T10:23:27.315Z,3.84
2023-03-05T10:24:27.315Z,3.83
2023-03-05T10:25:27.326Z,3.83
2023-03-05T10:26:27.300Z,3.84
2023-03-05T10:27:27.361Z,3.84
2023-03-05T10:28:27.269Z,3.83
2023-03-05T10:29:27.266Z,3.84
2023-03-05T10:30:27.247Z,3.84
2023-03-05T10:31:27.335Z,3.80
2023-03-05T10:32:27.255Z,3.78
2023-03-05T10:33:27.236Z,3.77
2023-03-05T10:34:27.211Z,3.80
2023-03-05T10:35:27.256Z,3.80
2023-03-05T10:36:27.188Z,3.77
2023-03-05T10:37:27.214Z,3.80
2023-03-05T10:38:27.182Z,3.83
2023-03-05T10:39:27.168Z,3.84
2023-03-05T10:40:27.154Z,3.84
2023-03-05T10:41:27.137Z,3.84
2023-03-05T10:42:28.629Z,3.83
2023-03-05T10:43:27.535Z,3.86
2023-03-05T10:44:27.125Z,3.87
2023-03-05T10:45:27.113Z,3.91
2023-03-05T10:46:27.090Z,3.91
2023-03-05T10:47:27.092Z,3.86
2023-03-05T10:48:27.058Z,3.84
2023-03-05T10:49:27.092Z,3.84
2023-03-05T10:50:27.059Z,3.84
2023-03-05T10:51:27.039Z,3.83
2023-03-05T10:52:27.047Z,3.86
2023-03-05T10:53:27.022Z,3.86
2023-03-05T10:54:27.010Z,3.87
2023-03-05T10:55:27.043Z,3.86
2023-03-05T10:56:27.226Z,3.86
2023-03-05T10:57:26.992Z,3.86
2023-03-05T10:58:26.979Z,3.88
2023-03-05T10:59:26.963Z,3.91
2023-03-05T11:00:26.955Z,3.95
2023-03-05T11:01:27.006Z,3.94
2023-03-05T11:02:27.008Z,3.96
2023-03-05T11:03:26.919Z,3.96
2023-03-05T11:04:26.914Z,3.96
2023-03-05T11:05:26.900Z,3.98
2023-03-05T11:06:26.885Z,3.98
2023-03-05T11:07:26.916Z,3.99
2023-03-05T11:08:26.865Z,4.01
2023-03-05T11:09:26.862Z,3.99
2023-03-05T11:10:26.873Z,3.99
2023-03-05T11:11:26.860Z,4.01
2023-03-05T11:12:26.837Z,4.01
2023-03-05T11:13:26.845Z,4.04
2023-03-05T11:14:26.803Z,4.06
2023-03-05T11:15:26.808Z,4.05
2023-03-05T11:16:26.923Z,4.05
2023-03-05T11:17:26.786Z,4.02
2023-03-05T11:18:26.795Z,4.02
2023-03-05T11:19:26.750Z,4.05
2023-03-05T11:20:26.733Z,4.06
2023-03-05T11:21:26.724Z,4.04
2023-03-05T11:22:26.724Z,4.08
2023-03-05T11:23:26.727Z,4.06
2023-03-05T11:24:26.741Z,4.08
2023-03-05T11:25:26.706Z,4.08
2023-03-05T11:26:26.681Z,4.10
2023-03-05T11:27:26.676Z,4.12
2023-03-05T11:28:32.934Z,4.13
2023-03-05T11:29:26.688Z,4.12
2023-03-05T11:30:26.648Z,4.14
2023-03-05T11:31:26.679Z,4.17
2023-03-05T11:32:26.660Z,4.19
2023-03-05T11:33:26.604Z,4.14
2023-03-05T11:34:26.600Z,4.13
2023-03-05T11:35:26.657Z,4.12
2023-03-05T11:36:26.607Z,4.14
2023-03-05T11:37:26.585Z,4.14
2023-03-05T11:38:26.563Z,4.16
2023-03-05T11:39:26.607Z,4.19
2023-03-05T11:40:26.602Z,4.17
2023-03-05T11:41:26.542Z,4.13
2023-03-05T11:42:26.524Z,4.10
2023-03-05T11:43:26.518Z,4.13
2023-03-05T11:44:26.491Z,4.12
2023-03-05T11:45:26.499Z,4.12
2023-03-05T11:46:26.520Z,4.12
2023-03-05T11:47:26.463Z,4.14
2023-03-05T11:48:26.462Z,4.10
2023-03-05T11:49:26.445Z,4.12
2023-03-05T11:50:26.434Z,4.08
2023-03-05T11:51:26.441Z,4.06
2023-03-05T11:52:26.446Z,4.05
2023-03-05T11:53:26.439Z,4.10
2023-03-05T11:54:26.416Z,4.08
2023-03-05T11:55:26.383Z,4.10
2023-03-05T11:56:26.374Z,4.13
2023-03-05T11:57:26.443Z,4.10
2023-03-05T11:58:26.376Z,4.14
2023-03-05T11:59:26.363Z,4.14
2023-03-05T12:00:26.350Z,4.12
2023-03-05T12:01:26.341Z,4.14
2023-03-05T12:02:26.420Z,4.16
2023-03-05T12:03:26.396Z,4.14
2023-03-05T12:04:26.312Z,4.13
2023-03-05T12:05:26.319Z,4.13
2023-03-05T12:06:26.293Z,4.13
2023-03-05T12:07:28.253Z,4.13
2023-03-05T12:08:26.304Z,4.13
2023-03-05T12:09:26.254Z,4.10
2023-03-05T12:10:26.285Z,4.08
2023-03-05T12:11:26.236Z,4.12
2023-03-05T12:12:26.248Z,4.12
2023-03-05T12:13:26.218Z,4.13
2023-03-05T12:14:26.252Z,4.16
2023-03-05T12:15:26.213Z,4.17
2023-03-05T12:16:26.244Z,4.19
2023-03-05T12:17:26.194Z,4.17
2023-03-05T12:18:26.172Z,4.19
2023-03-05T12:19:26.172Z,4.19
2023-03-05T12:20:26.248Z,4.22
2023-03-05T12:21:26.187Z,4.23
2023-03-05T12:22:26.126Z,4.26
2023-03-05T12:23:26.116Z,4.28
2023-03-05T12:24:28.387Z,4.23
2023-03-05T12:25:26.110Z,4.20
2023-03-05T12:26:26.089Z,4.20
2023-03-05T12:27:26.099Z,4.19
2023-03-05T12:28:26.062Z,4.22
2023-03-05T12:29:26.060Z,4.19
2023-03-05T12:30:26.049Z,4.16
2023-03-05T12:31:26.072Z,4.16
2023-03-05T12:32:26.173Z,4.14
2023-03-05T12:33:26.020Z,4.14
2023-03-05T12:34:25.991Z,4.13
2023-03-05T12:35:26.070Z,4.12
2023-03-05T12:36:25.985Z,4.05
2023-03-05T12:37:25.988Z,4.02
2023-03-05T12:38:27.214Z,4.01
2023-03-05T12:39:25.958Z,4.04
2023-03-05T12:40:25.949Z,4.04
2023-03-05T12:41:28.086Z,4.04
2023-03-05T12:42:25.924Z,4.05
2023-03-05T12:43:25.927Z,4.05
2023-03-05T12:44:25.939Z,4.08
2023-03-05T12:45:25.920Z,4.13
2023-03-05T12:46:26.017Z,4.13
2023-03-05T12:47:25.866Z,4.16
2023-03-05T12:48:25.899Z,4.19
2023-03-05T12:49:25.858Z,4.17
2023-03-05T12:50:25.872Z,4.19
2023-03-05T12:51:25.830Z,4.19
2023-03-05T12:52:25.818Z,4.24
2023-03-05T12:53:25.807Z,4.31
2023-03-05T12:54:25.801Z,4.31
2023-03-05T12:55:25.805Z,4.34
2023-03-05T12:56:25.803Z,4.34
2023-03-05T12:57:25.790Z,4.38
2023-03-05T12:58:25.778Z,4.35
2023-03-05T12:59:26.142Z,4.38
2023-03-05T13:00:25.924Z,4.40
2023-03-05T13:01:25.728Z,4.40
2023-03-05T13:02:25.717Z,4.38
2023-03-05T13:03:25.749Z,4.40
2023-03-05T13:04:25.714Z,4.38
2023-03-05T13:05:25.728Z,4.37
2023-03-05T13:06:25.682Z,4.40
2023-03-05T13:07:25.682Z,4.40
2023-03-05T13:08:25.689Z,4.44
2023-03-05T13:09:25.653Z,4.50
2023-03-05T13:10:25.681Z,4.55
2023-03-05T13:11:25.622Z,4.56
2023-03-05T13:12:25.721Z,4.59
2023-03-05T13:13:25.626Z,4.59
2023-03-05T13:14:25.602Z,4.59
2023-03-05T13:15:25.577Z,4.58
2023-03-05T13:16:25.712Z,4.60
2023-03-05T13:17:25.565Z,4.60
2023-03-05T13:18:25.557Z,4.59